createdAt,value
2022-09-04T00:05:03.421Z,0.90
2022-09-04T00:10:20.879Z,0.60
2022-09-04T00:15:31.053Z,0.70
2022-09-04T00:20:48.483Z,0.63
2022-09-04T00:26:02.992Z,0.90
2022-09-04T00:31:31.444Z,0.90
2022-09-04T00:36:39.996Z,0.83
2022-09-04T00:42:16.066Z,0.70
2022-09-04T00:47:42.544Z,0.90
2022-09-04T00:53:09.828Z,0.80
2022-09-04T00:58:30.727Z,0.87
2022-09-04T01:03:55.968Z,0.70
2022-09-04T01:09:25.089Z,0.73
2022-09-04T01:14:48.629Z,0.93
2022-09-04T01:19:56.686Z,0.97
2022-09-04T01:25:11.371Z,1.13
2022-09-04T01:30:19.787Z,0.73
2022-09-04T01:35:36.589Z,1.10
2022-09-04T01:40:56.753Z,1.20
2022-09-04T01:46:16.829Z,1.20
2022-09-04T01:51:28.223Z,1.00
2022-09-04T01:56:45.927Z,1.17
2022-09-04T02:02:00.447Z,1.17
2022-09-04T02:07:14.617Z,1.03
2022-09-04T02:12:42.821Z,1.07
2022-09-04T02:18:11.110Z,0.93
2022-09-04T02:23:39.608Z,0.93
2022-09-04T02:29:06.382Z,1.23
2022-09-04T02:34:40.437Z,1.10
2022-09-04T02:40:24.267Z,0.90
2022-09-04T02:46:06.599Z,1.00
2022-09-04T02:51:41.038Z,0.90
2022-09-04T02:56:49.642Z,1.00
2022-09-04T03:02:01.333Z,1.10
2022-09-04T03:07:31.727Z,0.90
2022-09-04T03:12:49.595Z,1.00
2022-09-04T03:18:22.118Z,0.80
2022-09-04T03:23:39.433Z,1.10
2022-09-04T03:29:04.544Z,1.10
2022-09-04T03:34:24.471Z,1.03
2022-09-04T03:40:06.671Z,1.00
2022-09-04T03:45:45.254Z,1.20
2022-09-04T03:50:53.876Z,1.07
2022-09-04T03:56:23.262Z,1.00
2022-09-04T04:01:37.764Z,1.20
2022-09-04T04:06:55.593Z,1.30
2022-09-04T04:12:19.490Z,1.20
2022-09-04T04:17:49.017Z,1.17
2022-09-04T04:23:10.250Z,1.47
2022-09-04T04:28:24.692Z,1.60
2022-09-04T04:33:42.780Z,1.57
2022-09-04T04:38:57.496Z,1.53
2022-09-04T04:44:18.170Z,1.57
2022-09-04T04:49:36.302Z,1.40
2022-09-04T04:55:06.521Z,1.63
2022-09-04T05:00:34.877Z,1.40
2022-09-04T05:05:56.148Z,1.37
2022-09-04T05:11:10.779Z,1.33
2022-09-04T05:16:35.678Z,1.77
2022-09-04T05:21:50.177Z,1.37
2022-09-04T05:26:59.132Z,1.57
2022-09-04T05:32:19.436Z,1.30
2022-09-04T05:37:47.726Z,1.47
2022-09-04T05:43:00.339Z,1.30
2022-09-04T05:48:15.034Z,1.60
2022-09-04T05:53:26.053Z,1.60
2022-09-04T05:58:43.367Z,1.50
2022-09-04T06:03:57.848Z,1.33
2022-09-04T06:09:18.388Z,1.77
2022-09-04T06:14:42.041Z,1.40
2022-09-04T06:20:02.763Z,1.30
2022-09-04T06:25:39.776Z,1.50
2022-09-04T06:31:11.424Z,1.67
2022-09-04T06:36:23.359Z,1.57
2022-09-04T06:41:48.895Z,1.50
2022-09-04T06:47:12.588Z,1.53
2022-09-04T06:52:31.043Z,1.60
2022-09-04T06:57:54.533Z,1.73
2022-09-04T07:03:15.044Z,1.90
2022-09-04T07:08:43.446Z,1.30
2022-09-04T07:14:10.224Z,1.80
2022-09-04T07:19:35.133Z,1.60
2022-09-04T07:24:52.796Z,1.47
2022-09-04T07:30:06.839Z,1.70
2022-09-04T07:35:18.251Z,1.40
2022-09-04T07:40:30.777Z,1.60
2022-09-04T07:45:46.748Z,1.90
2022-09-04T07:51:02.989Z,1.73
2022-09-04T07:56:14.225Z,1.53
2022-09-04T08:01:45.283Z,1.50
2022-09-04T08:06:54.124Z,1.50
2022-09-04T08:12:14.434Z,1.60
2022-09-04T08:17:45.879Z,1.73
2022-09-04T08:23:06.215Z,2.10
2022-09-04T08:28:31.547Z,1.93
2022-09-04T08:33:40.258Z,1.60
2022-09-04T08:39:09.571Z,1.73
2022-09-04T08:44:21.021Z,1.80
2022-09-04T08:49:58.303Z,1.87
2022-09-04T08:55:21.769Z,1.80
2022-09-04T09:00:47.208Z,1.63
2022-09-04T09:06:02.292Z,1.70
2022-09-04T09:11:39.812Z,1.60
2022-09-04T09:16:48.311Z,1.57
2022-09-04T09:22:16.739Z,1.80
2022-09-04T09:27:58.975Z,1.90
2022-09-04T09:33:10.579Z,1.57
2022-09-04T09:38:35.909Z,1.70
2022-09-04T09:43:51.267Z,1.80
2022-09-04T09:49:19.197Z,2.00
2022-09-04T09:54:51.998Z,1.80
2022-09-04T10:00:18.445Z,1.60
2022-09-04T10:05:49.832Z,1.90
2022-09-04T10:11:04.790Z,1.70
2022-09-04T10:16:29.730Z,1.47
2022-09-04T10:22:13.573Z,1.33
2022-09-04T10:27:28.154Z,1.60
2022-09-04T10:32:51.942Z,1.60
2022-09-04T10:38:20.144Z,1.83
2022-09-04T10:43:51.405Z,1.20
2022-09-04T10:49:13.056Z,1.63
2022-09-04T10:54:21.629Z,1.80
2022-09-04T10:59:58.858Z,1.90
2022-09-04T11:05:17.667Z,2.00
2022-09-04T11:10:45.895Z,1.70
2022-09-04T11:16:10.249Z,1.80
2022-09-04T11:21:35.704Z,1.67
2022-09-04T11:27:07.921Z,1.63
2022-09-04T11:32:22.503Z,1.70
2022-09-04T11:37:31.420Z,1.73
2022-09-04T11:43:01.137Z,1.52
2022-09-04T11:48:21.678Z,1.97
2022-09-04T11:53:36.223Z,1.70
2022-09-04T11:58:44.929Z,1.50
2022-09-04T12:04:22.581Z,2.40
2022-09-04T12:09:37.075Z,2.03
2022-09-04T12:15:07.654Z,1.80
2022-09-04T12:20:17.169Z,1.77
2022-09-04T12:25:37.268Z,2.07
2022-09-04T12:30:52.088Z,2.10
2022-09-04T12:36:31.009Z,2.00
2022-09-04T12:42:05.744Z,2.10
2022-09-04T12:47:33.942Z,2.00
2022-09-04T12:52:45.034Z,2.00
2022-09-04T12:58:00.989Z,2.22
2022-09-04T13:03:43.273Z,1.97
2022-09-04T13:08:52.930Z,2.10
2022-09-04T13:14:05.621Z,1.93
2022-09-04T13:19:30.504Z,2.20
2022-09-04T13:24:45.169Z,2.43
2022-09-04T13:30:11.927Z,1.87
2022-09-04T13:35:58.744Z,1.90
2022-09-04T13:41:16.154Z,2.10
2022-09-04T13:46:32.076Z,1.93
2022-09-04T13:51:53.240Z,2.03
2022-09-04T13:57:07.453Z,2.10
2022-09-04T14:02:15.829Z,2.53
2022-09-04T14:07:30.017Z,2.67
2022-09-04T14:12:38.555Z,2.60
2022-09-04T14:17:58.868Z,2.40
2022-09-04T14:23:27.070Z,2.80
2022-09-04T14:28:38.374Z,2.63
2022-09-04T14:33:53.742Z,2.77
2022-09-04T14:39:21.424Z,2.80
2022-09-04T14:44:39.372Z,2.73
2022-09-04T14:49:48.007Z,2.80
2022-09-04T14:54:57.905Z,2.93
2022-09-04T15:00:21.174Z,2.57
2022-09-04T15:05:40.036Z,2.63
2022-09-04T15:10:50.128Z,2.50
2022-09-04T15:16:10.694Z,2.50
2022-09-04T15:21:22.544Z,2.93
2022-09-04T15:26:42.420Z,2.50
2022-09-04T15:31:47.836Z,2.83
2022-09-04T15:36:54.532Z,2.63
2022-09-04T15:42:01.380Z,2.67
2022-09-04T15:47:24.560Z,2.80
2022-09-04T15:52:42.482Z,2.97
2022-09-04T15:58:04.466Z,2.80
2022-09-04T16:03:15.865Z,3.43
2022-09-04T16:08:45.431Z,2.90
2022-09-04T16:14:17.347Z,2.77
2022-09-04T16:19:46.397Z,3.20
2022-09-04T16:24:59.114Z,3.10
2022-09-04T16:30:06.472Z,2.73
2022-09-04T16:35:21.719Z,3.40
2022-09-04T16:40:54.548Z,3.00
2022-09-04T16:46:29.820Z,2.83
2022-09-04T16:51:48.557Z,3.67
2022-09-04T16:57:12.084Z,2.70
2022-09-04T17:02:10.324Z,3.30
2022-09-04T17:07:21.871Z,3.50
2022-09-04T17:12:39.151Z,3.00
2022-09-04T17:17:47.350Z,2.73
2022-09-04T17:28:56.217Z,3.00
2022-09-04T17:29:11.656Z,3.17
2022-09-04T17:40:33.343Z,3.30
2022-09-04T17:40:48.979Z,3.30
2022-09-04T17:44:42.988Z,3.30
2022-09-04T17:49:53.965Z,3.50
2022-09-04T17:55:08.297Z,3.30
2022-09-04T18:00:24.670Z,3.47
2022-09-04T18:05:43.500Z,3.30
2022-09-04T18:11:01.709Z,3.20
2022-09-04T18:16:13.078Z,3.20
2022-09-04T18:21:26.298Z,3.17
2022-09-04T18:26:44.000Z,3.20
2022-09-04T18:37:05.893Z,3.30
2022-09-04T18:37:45.192Z,3.37
2022-09-04T18:50:23.191Z,3.20
2022-09-04T18:50:48.819Z,3.30
2022-09-04T18:53:08.547Z,4.00
2022-09-04T18:58:17.190Z,2.90
2022-09-04T19:03:46.995Z,3.20
2022-09-04T19:08:54.037Z,3.83
2022-09-04T19:14:10.300Z,3.03
2022-09-04T19:19:34.380Z,3.57
2022-09-04T19:24:47.518Z,3.40
2022-09-04T19:30:18.354Z,3.53
2022-09-04T19:35:15.639Z,3.83
2022-09-04T19:46:07.118Z,3.53
2022-09-04T19:46:11.957Z,3.87
2022-09-04T19:53:23.060Z,3.67
2022-09-04T19:56:13.292Z,3.43
2022-09-04T20:01:27.687Z,3.63
2022-09-04T20:06:38.964Z,3.70
2022-09-04T20:11:51.081Z,3.53
2022-09-04T20:17:09.526Z,3.30
2022-09-04T20:22:39.896Z,3.63
2022-09-04T20:27:51.291Z,3.60
2022-09-04T20:33:05.599Z,4.10
2022-09-04T20:38:26.387Z,3.47
2022-09-04T20:43:59.290Z,3.47
2022-09-04T20:52:58.850Z,3.20
2022-09-04T20:54:28.500Z,3.43
2022-09-04T21:03:07.791Z,3.20
2022-09-04T21:05:23.141Z,3.10
2022-09-04T21:10:34.591Z,3.00
2022-09-04T21:15:49.283Z,3.20
2022-09-04T21:21:13.075Z,3.30
2022-09-04T21:26:47.713Z,2.60
2022-09-04T21:32:12.739Z,2.83
2022-09-04T21:37:40.827Z,3.00
2022-09-04T21:42:52.262Z,2.30
2022-09-04T21:48:06.905Z,2.60
2022-09-04T21:53:26.024Z,2.90
2022-09-04T22:02:30.532Z,2.30
2022-09-04T22:04:12.011Z,2.07
2022-09-04T22:13:32.585Z,1.53
2022-09-04T22:14:56.565Z,1.50
2022-09-04T22:20:23.006Z,1.50
2022-09-04T22:25:49.770Z,1.67
2022-09-04T22:31:22.650Z,1.33
2022-09-04T22:36:34.079Z,1.30
2022-09-04T22:41:54.689Z,1.20
2022-09-04T22:47:05.034Z,1.27
2022-09-04T22:52:22.502Z,1.00
2022-09-04T22:57:45.008Z,1.30
2022-09-04T23:03:13.705Z,1.10
2022-09-04T23:13:53.063Z,1.17
2022-09-04T23:14:06.794Z,1.00
2022-09-04T23:26:36.127Z,1.13
2022-09-04T23:26:44.301Z,1.07
2022-09-04T23:30:25.802Z,0.73
2022-09-04T23:35:42.366Z,0.67
2022-09-04T23:40:59.808Z,1.10
2022-09-04T23:46:29.082Z,0.90
2022-09-04T23:52:05.418Z,1.10
2022-09-04T23:57:26.449Z,0.80
